Time;durP1;ratioP1;P1;durP2;ratioP2;P2;SDS_P1;SDS_P2;PMS_P1;PMS_P2;Temp;Humidity;BMP_temperature;BMP_pressure;BME280_temperature;BME280_humidity;BME280_pressure;Samples;Min_cycle;Max_cycle;Signal;HPM_P1;HPM_P2
2024/04/08 00:01:15;;;;;;;3.40;1.98;;;;;;;9.37;60.30;95332.47;5544070;25;20312;-70
2024/04/08 00:03:40;;;;;;;3.47;1.58;;;;;;;9.41;60.72;95348.63;5542566;25;20057;-72
2024/04/08 00:06:06;;;;;;;2.53;1.08;;;;;;;9.29;61.00;95342.53;5548727;25;20016;-72
2024/04/08 00:08:31;;;;;;;2.40;1.15;;;;;;;9.13;61.37;95354.91;5579247;25;20453;-72
2024/04/08 00:10:57;;;;;;;2.50;1.30;;;;;;;8.86;61.30;95345.50;5581416;25;20052;-71
2024/04/08 00:13:22;;;;;;;1.83;0.98;;;;;;;8.52;62.22;95315.00;5580497;25;20459;-72
2024/04/08 00:15:57;;;;;;;2.65;1.17;;;;;;;8.69;62.79;95332.81;5581894;25;19984;-72
2024/04/08 00:18:23;;;;;;;3.90;1.02;;;;;;;8.54;63.64;95328.69;5580548;25;19996;-72
2024/04/08 00:20:48;;;;;;;1.90;1.00;;;;;;;8.72;63.46;95323.09;5582000;25;20367;-71
2024/04/08 00:23:13;;;;;;;4.53;1.20;;;;;;;8.69;63.40;95333.69;5548408;25;20494;-69
2024/04/08 00:25:39;;;;;;;2.10;1.00;;;;;;;8.64;63.80;95329.75;5581385;25;19996;-69
2024/04/08 00:28:05;;;;;;;1.90;0.90;;;;;;;8.65;63.98;95333.97;5581732;25;20020;-71
2024/04/08 00:30:30;;;;;;;2.13;0.95;;;;;;;8.46;64.29;95331.78;5524721;25;19998;-72
2024/04/08 00:32:55;;;;;;;3.25;1.10;;;;;;;8.36;64.15;95325.50;5505279;26;20018;-69
2024/04/08 00:35:21;;;;;;;2.33;1.10;;;;;;;8.33;64.17;95336.91;5505492;26;19994;-72
2024/04/08 00:37:48;;;;;;;2.80;1.13;;;;;;;8.10;64.71;95334.97;5505329;26;20001;-71
2024/04/08 00:40:13;;;;;;;3.72;1.40;;;;;;;8.09;64.79;95322.97;5505197;26;19990;-72
2024/04/08 00:42:39;;;;;;;2.25;1.10;;;;;;;8.23;64.69;95333.25;5488544;25;20008;-72
2024/04/08 00:45:04;;;;;;;2.08;1.15;;;;;;;8.23;64.92;95328.09;5491635;26;20327;-72
2024/04/08 00:47:30;;;;;;;1.83;1.13;;;;;;;8.12;64.81;95315.84;5524085;26;19990;-72
2024/04/08 00:49:55;;;;;;;2.28;1.33;;;;;;;8.21;64.97;95322.19;5525248;26;20014;-72
2024/04/08 00:52:21;;;;;;;1.92;1.02;;;;;;;8.17;65.26;95331.09;5523766;26;19989;-69
2024/04/08 00:54:46;;;;;;;3.72;1.08;;;;;;;8.18;65.54;95328.38;5525711;26;20000;-72
2024/04/08 00:57:12;;;;;;;1.60;0.98;;;;;;;8.11;65.72;95315.94;5526164;26;20351;-72
2024/04/08 00:59:38;;;;;;;1.73;0.93;;;;;;;8.25;65.34;95332.25;5464738;26;20002;-69
2024/04/08 01:02:04;;;;;;;2.28;0.90;;;;;;;8.14;65.34;95329.53;5495015;26;19999;-71
2024/04/08 01:04:31;;;;;;;2.25;1.00;;;;;;;8.06;65.25;95316.25;5526079;26;20455;-72
2024/04/08 01:06:56;;;;;;;2.10;1.00;;;;;;;8.15;65.38;95326.00;5525904;26;20009;-72
2024/04/08 01:09:22;;;;;;;1.80;0.80;;;;;;;8.18;65.07;95323.19;5524158;26;20004;-71
2024/04/08 01:11:47;;;;;;;1.83;1.00;;;;;;;8.08;65.37;95322.16;5525885;26;20023;-72
2024/04/08 01:14:13;;;;;;;3.95;2.67;;;;;;;8.06;65.72;95319.66;5525505;26;20033;-72
2024/04/08 01:16:38;;;;;;;3.42;2.33;;;;;;;8.02;65.91;95327.72;5495020;26;20503;-72
2024/04/08 01:19:04;;;;;;;2.40;1.30;;;;;;;7.84;66.32;95321.97;5527508;25;20000;-71
2024/04/08 01:21:30;;;;;;;2.65;1.40;;;;;;;7.81;66.37;95320.41;5527287;26;20064;-72
2024/04/08 01:23:55;;;;;;;2.17;1.20;;;;;;;7.90;66.15;95339.69;5525661;26;20144;-72
2024/04/08 01:26:21;;;;;;;3.22;0.93;;;;;;;7.80;66.23;95338.59;5525217;26;20436;-72
2024/04/08 01:28:46;;;;;;;2.05;1.00;;;;;;;7.91;66.46;95333.59;5527351;26;19993;-72
2024/04/08 01:31:14;;;;;;;3.53;1.20;;;;;;;7.82;66.42;95332.41;5495813;26;19998;-72
2024/04/08 01:33:40;;;;;;;2.40;1.10;;;;;;;7.88;67.14;95336.34;5488814;26;20029;-71
2024/04/08 01:36:06;;;;;;;6.55;0.95;;;;;;;7.76;67.29;95324.22;5458542;26;20008;-72
2024/04/08 01:38:31;;;;;;;1.70;1.00;;;;;;;7.78;67.46;95332.72;5489146;26;20301;-72
2024/04/08 01:40:57;;;;;;;2.33;1.20;;;;;;;7.55;67.66;95329.81;5428551;26;20002;-71
2024/04/08 01:43:23;;;;;;;2.85;1.25;;;;;;;7.57;68.21;95325.38;5458320;26;20027;-72
2024/04/08 01:45:49;;;;;;;1.55;0.98;;;;;;;7.60;67.84;95322.63;5458391;26;19990;-72
2024/04/08 01:48:14;;;;;;;2.35;1.00;;;;;;;7.67;68.02;95319.63;5458868;26;20066;-71
2024/04/08 01:50:39;;;;;;;2.58;1.00;;;;;;;7.65;67.40;95314.53;5489888;26;20031;-72
2024/04/08 01:53:05;;;;;;;2.60;1.10;;;;;;;7.75;66.64;95314.81;5488404;26;20309;-70
2024/04/08 01:55:30;;;;;;;2.85;1.20;;;;;;;7.79;65.90;95314.50;5427604;26;20332;-71
2024/04/08 01:57:57;;;;;;;1.55;0.85;;;;;;;7.79;65.55;95314.50;5488158;26;19994;-71
2024/04/08 02:00:22;;;;;;;2.55;1.00;;;;;;;7.99;66.22;95308.03;5488188;26;20215;-71
2024/04/08 02:02:48;;;;;;;3.80;1.08;;;;;;;7.99;64.88;95308.03;5458061;26;19997;-71
2024/04/08 02:05:14;;;;;;;2.30;1.00;;;;;;;7.91;65.90;95302.56;5518459;26;20030;-71
2024/04/08 02:07:39;;;;;;;2.47;1.02;;;;;;;8.13;64.90;95314.91;5457764;26;19991;-71
2024/04/08 02:10:06;;;;;;;2.08;1.10;;;;;;;8.20;64.55;95308.41;5487631;26;19994;-71
2024/04/08 02:12:31;;;;;;;3.30;1.92;;;;;;;8.33;64.27;95316.22;5458263;26;20026;-71
2024/04/08 02:14:56;;;;;;;3.17;1.40;;;;;;;8.21;64.24;95317.00;5427771;26;19994;-71
2024/04/08 02:17:22;;;;;;;2.22;1.40;;;;;;;8.10;64.93;95315.09;5487765;26;20022;-71
2024/04/08 02:19:47;;;;;;;2.03;1.17;;;;;;;7.99;65.24;95302.03;5457647;26;20005;-71
2024/04/08 02:22:12;;;;;;;3.17;1.23;;;;;;;8.15;64.82;95320.00;5457163;26;20422;-71
2024/04/08 02:24:38;;;;;;;2.22;1.20;;;;;;;7.88;65.41;95294.97;5487625;26;20013;-71
2024/04/08 02:27:04;;;;;;;3.72;1.00;;;;;;;8.09;65.07;95323.81;5457214;26;20000;-71
2024/04/08 02:29:31;;;;;;;1.95;0.90;;;;;;;7.98;64.83;95321.09;5491036;26;19994;-71
2024/04/08 02:31:57;;;;;;;2.65;1.25;;;;;;;8.06;64.57;95313.66;5524463;26;20446;-71
2024/04/08 02:34:22;;;;;;;2.20;1.10;;;;;;;8.11;63.87;95323.69;5526380;26;20012;-71
2024/04/08 02:36:48;;;;;;;1.63;0.98;;;;;;;8.18;63.76;95327.56;5524453;26;20004;-71
2024/04/08 02:39:14;;;;;;;3.70;1.13;;;;;;;8.15;63.87;95328.59;5493928;26;19989;-72
2024/04/08 02:41:39;;;;;;;2.20;1.20;;;;;;;8.10;63.73;95325.47;5493932;26;19989;-71
2024/04/08 02:44:04;;;;;;;2.55;1.08;;;;;;;8.12;63.61;95333.13;5526382;25;20004;-71
2024/04/08 02:46:30;;;;;;;2.80;1.10;;;;;;;8.02;63.74;95325.97;5524282;26;20000;-71
2024/04/08 02:48:55;;;;;;;2.53;1.20;;;;;;;8.17;63.43;95344.03;5524755;26;20033;-71
2024/04/08 02:51:21;;;;;;;2.50;1.20;;;;;;;8.02;63.78;95331.16;5523977;26;20005;-71
2024/04/08 02:53:46;;;;;;;1.90;1.00;;;;;;;8.17;64.09;95337.09;5524065;26;20021;-71
2024/04/08 02:56:12;;;;;;;1.90;1.02;;;;;;;8.24;63.52;95355.63;5525565;26;20001;-71
2024/04/08 02:58:37;;;;;;;1.80;1.10;;;;;;;8.09;64.22;95356.63;5524599;26;20017;-71
2024/04/08 03:01:12;;;;;;;2.65;0.98;;;;;;;8.10;63.73;95353.91;5525545;26;19999;-71
2024/04/08 03:03:37;;;;;;;3.45;1.00;;;;;;;8.00;64.12;95351.09;5524573;26;20042;-71
2024/04/08 03:06:07;;;;;;;2.20;1.30;;;;;;;7.95;64.53;95355.75;5523273;26;19989;-71
2024/04/08 03:08:35;;;;;;;1.95;1.25;;;;;;;7.89;64.58;95360.50;5493013;26;20005;-71
2024/04/08 03:11:01;;;;;;;2.78;1.50;;;;;;;7.65;65.50;95345.56;5524279;26;19989;-71
2024/04/08 03:13:26;;;;;;;2.30;1.40;;;;;;;7.64;66.34;95362.03;5523672;26;20021;-71
2024/04/08 03:15:55;;;;;;;3.78;1.42;;;;;;;7.52;66.61;95355.88;5492722;26;20347;-71
2024/04/08 03:18:20;;;;;;;2.35;1.02;;;;;;;7.49;66.97;95368.13;5523771;26;19989;-72
2024/04/08 03:21:02;;;;;;;2.05;1.00;;;;;;;7.45;66.31;95358.94;5523811;26;20008;-71
2024/04/08 03:23:28;;;;;;;3.63;1.40;;;;;;;7.43;66.39;95365.94;5462968;26;19993;-71
2024/04/08 03:26:09;;;;;;;2.50;1.35;;;;;;;7.46;66.83;95369.16;5523396;26;19999;-71
2024/04/08 03:28:34;;;;;;;;;;;;;;;7.37;67.25;95367.16;5525874;25;19994;-71
2024/04/08 03:31:05;;;;;;;2.93;1.83;;;;;;;7.25;67.17;95358.41;5517231;26;19924;-71
2024/04/08 03:33:30;;;;;;;2.60;1.80;;;;;;;7.18;67.63;95375.19;5487192;26;20335;-71
2024/04/08 03:35:56;;;;;;;2.20;1.60;;;;;;;7.21;67.79;95376.75;5456380;26;20002;-71
2024/04/08 03:38:21;;;;;;;2.20;1.40;;;;;;;7.24;67.64;95379.97;5486871;26;20004;-71
2024/04/08 03:40:58;;;;;;;3.78;1.40;;;;;;;7.37;67.46;95382.66;5456145;26;20335;-71
2024/04/08 03:43:24;;;;;;;2.53;1.70;;;;;;;7.33;67.60;95376.84;5486832;26;20001;-71
2024/04/08 03:45:50;;;;;;;4.07;1.90;;;;;;;7.14;67.68;95366.78;5488208;26;19990;-71
2024/04/08 03:48:15;;;;;;;2.40;1.35;;;;;;;7.21;67.44;95381.91;5456427;26;20112;-71
2024/04/08 03:50:41;;;;;;;2.85;1.20;;;;;;;7.15;67.71;95381.38;5456134;26;20070;-71
2024/04/08 03:53:06;;;;;;;2.58;1.30;;;;;;;7.13;68.27;95385.81;5488043;26;20005;-71
2024/04/08 03:55:31;;;;;;;2.75;1.15;;;;;;;7.27;67.32;95381.53;5487938;26;20313;-71
2024/04/08 03:57:57;;;;;;;2.53;1.40;;;;;;;7.27;67.44;95386.72;5487929;26;20441;-71
2024/04/08 04:00:23;;;;;;;3.85;1.65;;;;;;;7.31;67.18;95383.03;5456030;26;20331;-71
2024/04/08 04:02:48;;;;;;;3.63;1.45;;;;;;;7.41;67.20;95389.31;5486121;26;19994;-71
2024/04/08 04:05:14;;;;;;;4.28;1.63;;;;;;;7.48;66.84;95389.75;5486269;26;20206;-71
2024/04/08 04:07:40;;;;;;;2.22;1.30;;;;;;;7.31;67.07;95378.69;5486133;26;20427;-71
2024/04/08 04:10:06;;;;;;;3.58;1.80;;;;;;;7.43;67.13;95387.44;5486071;26;20440;-71
2024/04/08 04:12:37;;;;;;;2.85;1.50;;;;;;;7.36;67.21;95378.41;5455625;26;19991;-71
2024/04/08 04:15:05;;;;;;;3.20;1.67;;;;;;;7.39;67.14;95370.47;5486327;26;19998;-71
2024/04/08 04:17:30;;;;;;;2.30;1.50;;;;;;;7.28;67.49;95357.38;5487531;26;19990;-71
2024/04/08 04:19:56;;;;;;;2.75;1.50;;;;;;;7.33;67.43;95376.84;5459161;26;20056;-71
2024/04/08 04:22:21;;;;;;;2.53;1.20;;;;;;;7.23;67.66;95372.31;5491644;26;19990;-71
2024/04/08 04:24:47;;;;;;;3.38;1.63;;;;;;;7.46;67.19;95374.31;5458699;26;20374;-71
2024/04/08 04:27:12;;;;;;;2.05;1.40;;;;;;;7.47;67.11;95381.19;5459075;26;19995;-71
2024/04/08 04:29:37;;;;;;;2.40;1.30;;;;;;;7.49;67.09;95381.88;5459130;26;20010;-71
2024/04/08 04:32:03;;;;;;;3.20;1.65;;;;;;;7.51;67.07;95380.03;5490689;26;20022;-71
2024/04/08 04:34:28;;;;;;;2.53;1.50;;;;;;;7.49;67.10;95381.06;5428896;26;20066;-71
2024/04/08 04:36:54;;;;;;;2.53;1.33;;;;;;;7.59;67.16;95382.16;5489361;26;20120;-71
2024/04/08 04:39:19;;;;;;;5.15;1.58;;;;;;;7.56;67.35;95392.69;5489104;26;20356;-71
2024/04/08 04:41:46;;;;;;;2.40;1.60;;;;;;;7.56;67.08;95395.28;5490681;26;20005;-71
2024/04/08 04:44:11;;;;;;;3.35;1.60;;;;;;;7.71;67.09;95396.91;5480240;26;19994;-71
2024/04/08 04:46:37;;;;;;;3.80;1.50;;;;;;;7.79;67.00;95399.03;5512212;25;20087;-71
2024/04/08 04:49:02;;;;;;;2.67;1.42;;;;;;;8.20;65.93;95403.34;5456567;26;20002;-71
2024/04/08 04:51:27;;;;;;;3.30;1.75;;;;;;;8.62;64.29;95404.09;5458858;26;20022;-71
2024/04/08 04:53:54;;;;;;;3.45;1.67;;;;;;;9.22;62.01;95398.38;5499930;25;20035;-71
2024/04/08 04:56:19;;;;;;;2.15;1.30;;;;;;;9.68;60.37;95400.34;5500457;25;20355;-71
2024/04/08 04:58:44;;;;;;;2.75;1.40;;;;;;;10.33;58.99;95406.19;5474964;25;21460;-71
2024/04/08 05:01:10;;;;;;;2.25;1.58;;;;;;;10.94;56.36;95393.88;5519438;26;20344;-71
2024/04/08 05:03:35;;;;;;;2.35;1.33;;;;;;;12.02;52.84;95400.28;5491368;25;20002;-71
2024/04/08 05:06:01;;;;;;;3.20;1.60;;;;;;;12.82;51.04;95409.50;5550623;25;20016;-69
2024/04/08 05:08:26;;;;;;;2.38;1.35;;;;;;;13.46;49.52;95405.09;5486667;26;20038;-69
2024/04/08 05:10:52;;;;;;;3.05;1.33;;;;;;;14.15;48.09;95415.66;5524156;25;20038;-69
2024/04/08 05:13:18;;;;;;;2.63;1.38;;;;;;;14.89;46.54;95416.97;5528708;25;20095;-70
2024/04/08 05:15:55;;;;;;;1.85;1.20;;;;;;;15.67;43.54;95414.19;5536485;25;19993;-69
2024/04/08 05:18:21;;;;;;;1.77;1.20;;;;;;;16.23;42.47;95406.22;5510439;26;20072;-69
2024/04/08 05:20:46;;;;;;;2.42;1.40;;;;;;;16.36;42.33;95407.66;5523699;25;20001;-71
2024/04/08 05:23:14;;;;;;;2.97;1.35;;;;;;;16.43;43.10;95412.16;5531644;25;20042;-69
2024/04/08 05:25:40;;;;;;;2.78;1.42;;;;;;;15.82;43.36;95400.50;5498362;25;20454;-69
2024/04/08 05:28:05;;;;;;;4.78;1.92;;;;;;;15.39;44.49;95414.13;5546543;25;20068;-70
2024/04/08 05:30:30;;;;;;;2.38;1.45;;;;;;;15.06;46.41;95411.03;5526810;25;19990;-69
2024/04/08 05:32:56;;;;;;;2.13;1.00;;;;;;;14.88;46.58;95402.25;5517225;25;20448;-71
2024/04/08 05:35:21;;;;;;;2.58;1.00;;;;;;;14.73;47.27;95404.44;5537249;25;20020;-70
2024/04/08 05:37:47;;;;;;;2.83;1.25;;;;;;;14.52;48.28;95420.28;5523239;25;20008;-71
2024/04/08 05:40:16;;;;;;;1.63;1.05;;;;;;;14.19;48.92;95424.88;5519394;25;20066;-71
2024/04/08 05:42:41;;;;;;;3.92;1.20;;;;;;;14.01;49.79;95421.22;5504225;26;20009;-71
2024/04/08 05:45:07;;;;;;;1.92;1.35;;;;;;;14.06;48.99;95422.47;5534237;25;20034;-71
2024/04/08 05:47:32;;;;;;;2.33;1.40;;;;;;;14.11;49.56;95426.50;5491584;26;19998;-71
2024/04/08 05:49:58;;;;;;;3.15;1.55;;;;;;;13.82;48.53;95420.22;5509271;25;19998;-71
2024/04/08 05:52:23;;;;;;;3.97;1.70;;;;;;;13.71;48.19;95429.94;5506391;25;20483;-71
2024/04/08 05:54:49;;;;;;;2.33;1.40;;;;;;;13.55;51.17;95433.03;5486589;25;19993;-71
2024/04/08 05:57:14;;;;;;;2.70;1.20;;;;;;;13.60;51.32;95434.28;5509569;26;20031;-71
2024/04/08 05:59:40;;;;;;;6.40;1.90;;;;;;;13.47;49.93;95414.56;5518131;26;20034;-71
2024/04/08 06:02:06;;;;;;;3.30;1.65;;;;;;;13.79;50.00;95425.72;5509959;25;19997;-71
2024/04/08 06:04:32;;;;;;;2.70;1.58;;;;;;;13.76;49.56;95430.34;5454446;26;20300;-71
2024/04/08 06:06:57;;;;;;;3.42;1.67;;;;;;;13.37;49.30;95425.81;5500358;25;19989;-71
2024/04/08 06:09:23;;;;;;;5.03;1.67;;;;;;;13.88;49.39;95418.88;5497900;26;20030;-72
2024/04/08 06:11:48;;;;;;;3.60;2.38;;;;;;;13.88;49.15;95421.47;5427335;26;20397;-71
2024/04/08 06:14:14;;;;;;;7.15;1.80;;;;;;;14.27;48.07;95408.53;5541339;25;20007;-72
2024/04/08 06:16:39;;;;;;;4.63;1.60;;;;;;;14.67;46.63;95421.50;5458026;26;19994;-79
2024/04/08 06:19:04;;;;;;;3.03;1.52;;;;;;;14.88;47.58;95420.56;5466094;26;20447;-73
2024/04/08 06:21:30;;;;;;;2.63;1.38;;;;;;;15.13;48.26;95435.69;5512033;26;19990;-71
2024/04/08 06:23:55;;;;;;;2.50;1.27;;;;;;;15.36;44.98;95425.72;5474609;26;20023;-71
2024/04/08 06:26:21;;;;;;;2.88;1.30;;;;;;;15.53;44.38;95428.56;5512967;26;20029;-71
2024/04/08 06:28:46;;;;;;;3.10;1.50;;;;;;;15.74;43.96;95428.38;5525778;26;20001;-72
2024/04/08 06:31:12;;;;;;;6.28;1.73;;;;;;;15.61;43.90;95420.81;5467179;26;20053;-71
2024/04/08 06:33:37;;;;;;;3.15;1.45;;;;;;;15.86;44.53;95414.97;5485548;26;19994;-71
2024/04/08 06:36:02;;;;;;;6.10;1.50;;;;;;;16.29;44.05;95421.34;5487745;26;20018;-71
2024/04/08 06:38:28;;;;;;;4.85;1.75;;;;;;;16.62;43.07;95420.88;5486441;26;20015;-71
2024/04/08 06:40:53;;;;;;;5.78;1.80;;;;;;;16.78;42.43;95417.59;5514435;26;20004;-71
2024/04/08 06:43:19;;;;;;;4.35;1.50;;;;;;;17.07;41.20;95418.16;5512733;26;20038;-71
2024/04/08 06:45:54;;;;;;;3.85;2.28;;;;;;;17.22;40.98;95415.84;5483566;26;20422;-71
2024/04/08 06:48:19;;;;;;;3.20;1.38;;;;;;;17.13;40.52;95421.97;5490466;26;20047;-71
2024/04/08 06:50:45;;;;;;;4.70;1.20;;;;;;;17.30;39.76;95410.63;5483318;26;19994;-71
2024/04/08 06:53:10;;;;;;;5.88;1.30;;;;;;;17.45;39.22;95410.88;5483707;26;20026;-71
2024/04/08 06:55:35;;;;;;;2.42;1.30;;;;;;;17.39;39.99;95420.22;5494944;26;20097;-71
2024/04/08 06:58:01;;;;;;;2.38;1.35;;;;;;;16.87;42.01;95428.00;5497970;26;20468;-71
2024/04/08 07:00:26;;;;;;;2.20;1.17;;;;;;;17.22;40.96;95428.97;5508150;26;20030;-71
2024/04/08 07:02:52;;;;;;;2.55;1.42;;;;;;;17.14;40.72;95439.41;5506817;26;20000;-73
2024/04/08 07:05:17;;;;;;;4.57;1.30;;;;;;;17.76;39.13;95441.94;5458865;26;20006;-73
2024/04/08 07:07:42;;;;;;;3.35;1.30;;;;;;;17.21;41.04;95440.41;5462797;26;20022;-72
2024/04/08 07:10:08;;;;;;;5.15;1.77;;;;;;;16.31;42.61;95427.28;5456343;26;20005;-72
2024/04/08 07:12:33;;;;;;;3.70;1.52;;;;;;;16.12;42.96;95445.72;5486725;26;20018;-73
2024/04/08 07:14:59;;;;;;;3.47;1.70;;;;;;;16.03;43.15;95436.94;5426986;26;20502;-72
2024/04/08 07:17:24;;;;;;;2.75;1.30;;;;;;;16.30;43.07;95424.81;5524060;26;19989;-72
2024/04/08 07:19:50;;;;;;;3.55;1.60;;;;;;;16.64;41.87;95414.50;5523629;26;20060;-72
2024/04/08 07:22:15;;;;;;;3.63;1.38;;;;;;;16.85;41.58;95422.06;5523838;26;20029;-72
2024/04/08 07:24:41;;;;;;;3.50;1.80;;;;;;;16.51;42.65;95435.00;5524005;26;19989;-72
2024/04/08 07:27:07;;;;;;;3.22;1.50;;;;;;;16.67;42.31;95445.66;5492785;26;19989;-72
2024/04/08 07:29:33;;;;;;;3.80;1.40;;;;;;;16.64;42.00;95424.16;5492644;26;20025;-72
2024/04/08 07:31:59;;;;;;;5.38;1.80;;;;;;;16.27;42.97;95428.56;5523387;26;19990;-71
2024/04/08 07:34:25;;;;;;;5.53;1.80;;;;;;;16.81;41.33;95420.75;5493156;26;20013;-72
2024/04/08 07:36:50;;;;;;;3.70;1.05;;;;;;;16.51;42.21;95443.69;5523986;26;20502;-72
2024/04/08 07:39:15;;;;;;;3.58;1.35;;;;;;;16.16;43.86;95434.00;5493161;26;19985;-72
2024/04/08 07:41:41;;;;;;;2.30;1.00;;;;;;;16.68;42.77;95421.06;5523715;26;20315;-71
2024/04/08 07:44:07;;;;;;;4.95;1.63;;;;;;;16.54;42.86;95430.28;5492992;26;19995;-72
2024/04/08 07:46:32;;;;;;;3.75;1.40;;;;;;;16.33;43.55;95435.00;5523440;26;19997;-73
2024/04/08 07:48:57;;;;;;;3.90;1.17;;;;;;;16.25;42.99;95432.28;5492967;26;19990;-72
2024/04/08 07:51:23;;;;;;;4.07;2.30;;;;;;;16.29;43.56;95423.13;5524444;26;20025;-72
2024/04/08 07:53:48;;;;;;;2.97;1.13;;;;;;;16.51;43.33;95425.34;5527028;26;20030;-72
2024/04/08 07:56:14;;;;;;;2.67;1.10;;;;;;;16.63;42.20;95422.50;5527096;26;20372;-72
2024/04/08 07:58:39;;;;;;;2.88;0.90;;;;;;;16.88;40.70;95407.84;5527172;26;20021;-73
2024/04/08 08:01:05;;;;;;;2.50;0.80;;;;;;;16.71;41.31;95430.44;5528982;26;20013;-72
2024/04/08 08:03:31;;;;;;;4.35;1.90;;;;;;;16.53;43.14;95433.91;5496274;26;20061;-72
2024/04/08 08:05:56;;;;;;;2.72;1.17;;;;;;;16.88;42.77;95432.31;5496560;26;20001;-73
2024/04/08 08:08:23;;;;;;;3.13;0.85;;;;;;;17.34;40.61;95414.59;5526886;26;20315;-72
2024/04/08 08:10:48;;;;;;;2.53;1.13;;;;;;;17.78;40.59;95422.44;5466408;26;19997;-72
2024/04/08 08:13:14;;;;;;;1.95;0.80;;;;;;;17.97;39.73;95410.03;5527033;26;19989;-72
2024/04/08 08:15:39;;;;;;;2.40;0.90;;;;;;;18.11;38.99;95419.97;5527080;26;20305;-73
2024/04/08 08:18:05;;;;;;;2.63;1.50;;;;;;;17.78;39.39;95404.03;5526941;26;20476;-73
2024/04/08 08:20:30;;;;;;;1.20;0.90;;;;;;;17.09;40.11;95403.09;5495754;26;19989;-73
2024/04/08 08:22:59;;;;;;;2.28;0.80;;;;;;;17.33;39.29;95404.25;5496174;26;20021;-73
2024/04/08 08:25:28;;;;;;;2.90;1.02;;;;;;;17.26;39.26;95409.28;5497099;26;20003;-73
2024/04/08 08:27:53;;;;;;;1.45;0.75;;;;;;;17.34;39.35;95390.97;5466317;26;19993;-72
2024/04/08 08:30:18;;;;;;;3.45;1.38;;;;;;;17.61;39.16;95413.63;5527823;26;20436;-73
2024/04/08 08:32:44;;;;;;;2.90;1.00;;;;;;;17.19;39.57;95413.50;5528675;26;20082;-72
2024/04/08 08:35:10;;;;;;;1.50;0.80;;;;;;;17.27;39.88;95389.91;5526954;26;20271;-73
2024/04/08 08:37:36;;;;;;;4.50;1.17;;;;;;;17.56;39.47;95407.19;5495492;26;20431;-72
2024/04/08 08:40:02;;;;;;;1.98;1.00;;;;;;;18.04;38.33;95392.66;5465166;26;20016;-72
2024/04/08 08:42:28;;;;;;;2.97;1.15;;;;;;;17.33;39.59;95393.75;5526179;26;20049;-72
2024/04/08 08:44:55;;;;;;;4.00;1.52;;;;;;;17.51;39.64;95410.25;5526584;26;19994;-72
2024/04/08 08:47:21;;;;;;;3.92;1.00;;;;;;;17.54;39.08;95390.75;5495996;26;19993;-72
2024/04/08 08:49:48;;;;;;;3.30;1.10;;;;;;;17.63;39.28;95395.06;5495833;26;19999;-73
2024/04/08 08:52:13;;;;;;;2.13;1.20;;;;;;;17.65;39.21;95395.72;5465208;26;20001;-73
2024/04/08 08:54:39;;;;;;;3.45;0.90;;;;;;;17.94;39.13;95392.78;5527917;26;20043;-72
2024/04/08 08:57:04;;;;;;;1.60;0.80;;;;;;;17.89;37.93;95394.25;5525975;26;19996;-72
2024/04/08 08:59:30;;;;;;;2.00;1.00;;;;;;;17.96;37.92;95401.31;5495662;26;20000;-72
2024/04/08 09:01:57;;;;;;;1.60;0.80;;;;;;;18.01;36.87;95385.09;5525769;26;20087;-72
2024/04/08 09:04:24;;;;;;;3.13;0.70;;;;;;;18.03;36.67;95388.38;5494593;26;20001;-72
2024/04/08 09:06:53;;;;;;;1.42;0.70;;;;;;;18.07;36.09;95379.19;5525994;26;20431;-72
2024/04/08 09:09:19;;;;;;;2.58;0.73;;;;;;;18.13;35.34;95385.59;5526133;26;20066;-73
2024/04/08 09:11:48;;;;;;;3.38;0.70;;;;;;;18.37;34.05;95379.59;5495005;26;19993;-73
2024/04/08 09:14:14;;;;;;;1.58;0.63;;;;;;;18.08;33.59;95370.34;5495413;26;20004;-73
2024/04/08 09:16:39;;;;;;;1.27;0.70;;;;;;;18.15;33.49;95370.50;5487844;26;20034;-72
2024/04/08 09:19:05;;;;;;;3.95;0.85;;;;;;;18.43;33.26;95364.00;5458828;26;19998;-72
2024/04/08 09:21:30;;;;;;;2.67;0.70;;;;;;;18.45;34.43;95364.66;5489228;26;20424;-72
2024/04/08 09:24:06;;;;;;;1.48;0.60;;;;;;;18.18;34.32;95373.63;5489018;26;20004;-71
2024/04/08 09:26:31;;;;;;;1.80;0.75;;;;;;;18.48;34.67;95363.50;5458591;26;20362;-72
2024/04/08 09:28:57;;;;;;;2.38;0.75;;;;;;;18.64;33.12;95368.78;5458298;26;20012;-73
2024/04/08 09:31:23;;;;;;;2.08;1.05;;;;;;;18.83;31.83;95354.50;5488162;26;20035;-72
2024/04/08 09:33:49;;;;;;;1.98;0.68;;;;;;;18.70;32.57;95348.91;5490093;26;19998;-72
2024/04/08 09:36:15;;;;;;;3.88;0.80;;;;;;;18.54;32.49;95362.84;5490091;26;20468;-72
2024/04/08 09:38:41;;;;;;;2.50;0.80;;;;;;;18.57;32.03;95348.56;5488645;26;19990;-72
2024/04/08 09:41:06;;;;;;;2.25;0.60;;;;;;;18.66;32.66;95356.28;5488510;26;20330;-72
2024/04/08 09:43:32;;;;;;;2.28;0.68;;;;;;;18.80;32.90;95336.41;5457903;26;20030;-72
2024/04/08 09:45:58;;;;;;;1.55;0.70;;;;;;;19.03;33.05;95341.84;5457621;26;20009;-73
2024/04/08 09:48:24;;;;;;;1.20;0.70;;;;;;;18.85;33.18;95335.94;5458068;26;19994;-72
2024/04/08 09:50:49;;;;;;;1.80;0.70;;;;;;;18.62;34.06;95354.97;5488154;26;20034;-73
2024/04/08 09:53:14;;;;;;;1.17;0.70;;;;;;;19.23;31.62;95338.88;5458276;26;20005;-73
2024/04/08 09:55:40;;;;;;;7.30;1.00;;;;;;;19.13;33.32;95337.22;5489999;26;20437;-73
2024/04/08 09:58:08;;;;;;;3.13;0.75;;;;;;;18.69;33.36;95334.94;5488468;26;20000;-73
2024/04/08 10:00:35;;;;;;;1.20;0.60;;;;;;;18.70;33.31;95326.03;5458096;26;20005;-73
2024/04/08 10:03:09;;;;;;;1.15;0.60;;;;;;;18.56;33.85;95313.53;5458001;26;20499;-73
2024/04/08 10:05:35;;;;;;;1.88;0.63;;;;;;;18.47;33.89;95307.47;5459613;26;19998;-73
2024/04/08 10:08:01;;;;;;;2.47;0.80;;;;;;;18.94;33.89;95324.41;5487916;26;19997;-73
2024/04/08 10:10:26;;;;;;;1.75;0.60;;;;;;;18.57;33.63;95320.44;5457259;26;20456;-73
2024/04/08 10:12:52;;;;;;;2.70;0.85;;;;;;;18.67;33.94;95313.22;5488269;26;20042;-73
2024/04/08 10:15:18;;;;;;;1.85;0.73;;;;;;;18.68;34.06;95308.78;5486158;26;19998;-73
2024/04/08 10:17:44;;;;;;;7.97;0.90;;;;;;;18.98;33.99;95315.19;5487581;26;20002;-73
2024/04/08 10:20:11;;;;;;;4.60;0.90;;;;;;;18.69;34.06;95310.41;5487779;26;20058;-72
2024/04/08 10:22:37;;;;;;;1.50;0.93;;;;;;;18.67;34.79;95307.94;5487803;26;20010;-73
2024/04/08 10:25:02;;;;;;;0.90;0.60;;;;;;;18.80;34.35;95304.03;5457231;26;20006;-73
2024/04/08 10:27:28;;;;;;;2.05;0.70;;;;;;;18.59;35.02;95283.47;5487599;26;19990;-73
2024/04/08 10:29:57;;;;;;;6.40;1.00;;;;;;;18.70;34.60;95288.38;5457022;26;20001;-73
2024/04/08 10:32:23;;;;;;;1.60;0.73;;;;;;;18.63;34.44;95277.69;5488416;26;19990;-73
2024/04/08 10:34:48;;;;;;;3.35;1.10;;;;;;;18.75;34.65;95286.94;5457291;26;20009;-73
2024/04/08 10:37:14;;;;;;;1.10;0.65;;;;;;;18.83;34.17;95266.84;5487892;26;20443;-73
2024/04/08 10:39:39;;;;;;;1.52;0.60;;;;;;;18.86;34.54;95284.94;5487759;26;20428;-73
2024/04/08 10:42:18;;;;;;;1.38;0.77;;;;;;;18.66;35.02;95269.44;5457351;26;20460;-73
2024/04/08 10:44:44;;;;;;;1.00;0.70;;;;;;;18.61;34.76;95258.63;5489671;26;19994;-73
2024/04/08 10:47:09;;;;;;;1.42;0.80;;;;;;;18.64;36.10;95254.84;5487713;26;19996;-73
2024/04/08 10:49:35;;;;;;;2.70;0.90;;;;;;;18.86;35.32;95250.72;5457509;26;20320;-73
2024/04/08 10:52:01;;;;;;;1.40;0.80;;;;;;;18.91;35.62;95259.75;5427109;26;20058;-73
2024/04/08 10:54:26;;;;;;;3.03;0.80;;;;;;;19.02;34.40;95244.59;5489242;26;20001;-74
2024/04/08 10:56:52;;;;;;;1.90;0.80;;;;;;;19.11;35.66;95236.53;5457361;26;20091;-73
2024/04/08 10:59:17;;;;;;;2.30;0.73;;;;;;;19.33;33.52;95242.84;5487793;26;20405;-73
2024/04/08 11:01:42;;;;;;;1.85;0.80;;;;;;;19.40;33.89;95248.25;5487526;26;19994;-73
2024/04/08 11:04:08;;;;;;;2.65;0.70;;;;;;;19.33;34.82;95237.56;5457088;26;20042;-73
2024/04/08 11:06:33;;;;;;;2.45;0.85;;;;;;;19.34;34.41;95244.50;5457093;26;20383;-73
2024/04/08 11:08:59;;;;;;;1.88;0.75;;;;;;;19.61;33.18;95229.22;5487591;26;20006;-73
2024/04/08 11:11:27;;;;;;;3.65;0.73;;;;;;;19.64;33.51;95242.06;5487178;26;19998;-73
2024/04/08 11:13:52;;;;;;;2.28;0.80;;;;;;;19.79;34.37;95237.72;5489370;26;20305;-73
2024/04/08 11:16:18;;;;;;;1.60;0.85;;;;;;;19.62;33.27;95233.50;5488962;26;20044;-72
2024/04/08 11:18:46;;;;;;;1.50;0.60;;;;;;;19.35;34.59;95230.34;5487428;26;19990;-72
2024/04/08 11:21:11;;;;;;;2.05;0.73;;;;;;;19.45;34.09;95206.44;5487161;26;19990;-72
2024/04/08 11:23:43;;;;;;;1.45;0.80;;;;;;;19.49;34.88;95205.06;5487186;26;20030;-72
2024/04/08 11:26:08;;;;;;;1.75;0.70;;;;;;;19.56;34.78;95192.06;5486732;26;20397;-73
2024/04/08 11:28:36;;;;;;;1.67;0.93;;;;;;;19.84;34.16;95202.94;5487159;26;20005;-72
2024/04/08 11:31:03;;;;;;;2.85;0.77;;;;;;;19.92;34.22;95173.91;5456777;26;20004;-73